KCAR 181054Z AUTO 17011KT 6SM -RA BR FEW006 OVC037 12/11 A2979 RMK AO2 SLP090 P0002 T01170106